Pellston, Michigan
Current Conditions -  °F | °C
As of 7:54 AM on Friday 24 Oct 2014 (Local Time) from KPLN Reporting Station
Overcast Overcast  
Wind Chill: 44°   Ceiling: 2900
Heat Index: 44°   Visibility: 10mi
Dew Point: 41°   Wind: 0mph
Humidity: 89%   Direction: NA
Pressure: 30"   Gusts: NA
Location:  45.55°N, 84.78°W
Report Text: KPLN 241154Z AUTO 00000KT 10SM SCT012 OVC029 07/05 A3000 RMK AO2 SLP167 T00670050 10072 20044 56005
Loading
Personal Weather Stations






























Interactive Weather Map
Tropical Storm Tracking
New forecast layout! Learn more

10-Day Weather Forecast

Advertisements
Track Severe Weather on mobile